createdAt,value
2023-01-08T00:00:39.188Z,1.04
2023-01-08T00:01:39.250Z,1.04
2023-01-08T00:02:39.468Z,1.04
2023-01-08T00:03:39.682Z,1.04
2023-01-08T00:04:39.633Z,1.04
2023-01-08T00:05:39.785Z,1.04
2023-01-08T00:06:39.887Z,1.04
2023-01-08T00:07:39.993Z,1.04
2023-01-08T00:08:40.095Z,1.04
2023-01-08T00:09:40.242Z,1.04
2023-01-08T00:10:40.344Z,1.04
2023-01-08T00:11:40.443Z,1.04
2023-01-08T00:12:40.592Z,1.04
2023-01-08T00:13:40.701Z,1.04
2023-01-08T00:14:40.802Z,1.04
2023-01-08T00:15:40.900Z,1.04
2023-01-08T00:16:41.065Z,1.04
2023-01-08T00:17:41.148Z,1.04
2023-01-08T00:18:41.300Z,1.04
2023-01-08T00:19:41.409Z,1.04
2023-01-08T00:20:41.554Z,1.04
2023-01-08T00:21:41.653Z,1.04
2023-01-08T00:22:41.812Z,1.04
2023-01-08T00:23:41.909Z,1.04
2023-01-08T00:24:42.064Z,1.04
2023-01-08T00:25:42.217Z,1.04
2023-01-08T00:26:42.364Z,1.04
2023-01-08T00:27:42.468Z,1.04
2023-01-08T00:28:42.620Z,1.04
2023-01-08T00:29:42.769Z,1.04
2023-01-08T00:30:42.963Z,1.04
2023-01-08T00:31:43.070Z,1.04
2023-01-08T00:32:43.186Z,1.04
2023-01-08T00:33:43.314Z,1.04
2023-01-08T00:34:43.441Z,1.04
2023-01-08T00:35:43.593Z,1.04
2023-01-08T00:36:43.681Z,1.04
2023-01-08T00:37:43.780Z,1.04
2023-01-08T00:38:43.945Z,1.04
2023-01-08T00:39:44.030Z,1.04
2023-01-08T00:40:44.137Z,1.04
2023-01-08T00:41:44.300Z,1.04
2023-01-08T00:42:44.385Z,1.04
2023-01-08T00:43:44.510Z,1.04
2023-01-08T00:44:44.605Z,1.04
2023-01-08T00:45:44.791Z,1.04
2023-01-08T00:46:44.901Z,1.04
2023-01-08T00:47:44.996Z,1.04
2023-01-08T00:48:45.152Z,1.04
2023-01-08T00:49:45.254Z,1.04
2023-01-08T00:50:45.355Z,1.04
2023-01-08T00:51:45.453Z,1.04
2023-01-08T00:52:45.560Z,1.04
2023-01-08T00:53:45.669Z,1.04
2023-01-08T00:54:45.809Z,1.04
2023-01-08T00:55:45.956Z,1.04
2023-01-08T00:56:46.111Z,1.04
2023-01-08T00:57:46.266Z,1.04
2023-01-08T00:58:46.365Z,1.04
2023-01-08T00:59:46.557Z,1.04
2023-01-08T01:00:46.676Z,1.04
2023-01-08T01:01:46.791Z,1.04
2023-01-08T01:02:46.820Z,1.04
2023-01-08T01:03:46.981Z,1.04
2023-01-08T01:04:47.069Z,1.04
2023-01-08T01:05:47.178Z,1.04
2023-01-08T01:06:47.277Z,1.04
2023-01-08T01:07:47.379Z,1.04
2023-01-08T01:08:47.479Z,1.04
2023-01-08T01:09:47.593Z,1.04
2023-01-08T01:10:47.685Z,1.04
2023-01-08T01:11:47.832Z,1.04
2023-01-08T01:12:47.980Z,1.04
2023-01-08T01:13:48.136Z,1.04
2023-01-08T01:14:48.286Z,1.04
2023-01-08T01:15:48.384Z,1.04
2023-01-08T01:16:48.598Z,1.04
2023-01-08T01:17:48.588Z,1.04
2023-01-08T01:18:48.755Z,1.04
2023-01-08T01:19:48.841Z,1.04
2023-01-08T01:20:48.945Z,1.04
2023-01-08T01:21:49.116Z,1.04
2023-01-08T01:22:49.150Z,1.04
2023-01-08T01:23:49.297Z,1.04
2023-01-08T01:24:49.400Z,1.04
2023-01-08T01:25:49.506Z,1.04
2023-01-08T01:26:49.653Z,1.04
2023-01-08T01:27:49.757Z,1.04
2023-01-08T01:28:49.912Z,1.04
2023-01-08T01:29:50.058Z,1.04
2023-01-08T01:30:50.184Z,1.04
2023-01-08T01:31:50.263Z,1.04
2023-01-08T01:32:50.416Z,1.04
2023-01-08T01:33:50.561Z,1.04
2023-01-08T01:34:50.664Z,1.04
2023-01-08T01:35:50.768Z,1.04
2023-01-08T01:36:50.902Z,1.04
2023-01-08T01:37:50.969Z,1.04
2023-01-08T01:38:51.073Z,1.04
2023-01-08T01:39:51.172Z,1.04
2023-01-08T01:40:51.276Z,1.04
2023-01-08T01:41:51.433Z,1.04
2023-01-08T01:42:51.526Z,1.04
2023-01-08T01:43:51.687Z,1.04
2023-01-08T01:44:51.828Z,1.04
2023-01-08T01:45:51.994Z,1.04
2023-01-08T01:46:52.032Z,1.04
2023-01-08T01:47:52.187Z,1.04
2023-01-08T01:48:52.285Z,1.04
2023-01-08T01:49:52.441Z,1.04
2023-01-08T01:50:52.588Z,1.04
2023-01-08T01:51:52.735Z,1.04
2023-01-08T01:52:52.852Z,1.04
2023-01-08T01:53:52.941Z,1.04
2023-01-08T01:54:53.053Z,1.04
2023-01-08T01:55:53.148Z,1.04
2023-01-08T01:56:53.268Z,1.04
2023-01-08T01:57:53.354Z,1.04
2023-01-08T01:58:53.452Z,1.04
2023-01-08T01:59:53.551Z,1.04
2023-01-08T02:00:53.731Z,1.04
2023-01-08T02:01:53.989Z,1.04
2023-01-08T02:02:53.952Z,1.04
2023-01-08T02:03:54.083Z,1.04
2023-01-08T02:04:54.207Z,1.04
2023-01-08T02:05:54.311Z,1.04
2023-01-08T02:06:54.420Z,1.04
2023-01-08T02:07:54.515Z,1.04
2023-01-08T02:08:54.620Z,1.04
2023-01-08T02:09:54.769Z,1.04
2023-01-08T02:10:54.917Z,1.04
2023-01-08T02:11:55.023Z,1.04
2023-01-08T02:12:55.185Z,1.04
2023-01-08T02:13:55.325Z,1.04
2023-01-08T02:14:55.433Z,1.04
2023-01-08T02:15:55.576Z,1.04
2023-01-08T02:16:55.759Z,1.04
2023-01-08T02:17:55.828Z,1.04
2023-01-08T02:18:55.966Z,1.04
2023-01-08T02:19:56.081Z,1.04
2023-01-08T02:20:56.186Z,1.04
2023-01-08T02:21:56.294Z,1.04
2023-01-08T02:22:56.441Z,1.04
2023-01-08T02:23:56.538Z,1.04
2023-01-08T02:24:56.693Z,1.04
2023-01-08T02:25:56.790Z,1.04
2023-01-08T02:26:56.903Z,1.04
2023-01-08T02:27:57.045Z,1.04
2023-01-08T02:28:57.194Z,1.04
2023-01-08T02:29:57.295Z,1.04
2023-01-08T02:30:57.521Z,1.04
2023-01-08T02:31:57.550Z,1.04
2023-01-08T02:32:57.704Z,1.04
2023-01-08T02:33:57.864Z,1.04
2023-01-08T02:34:57.953Z,1.04
2023-01-08T02:35:58.057Z,1.04
2023-01-08T02:36:58.205Z,1.04
2023-01-08T02:37:58.362Z,1.04
2023-01-08T02:38:58.471Z,1.04
2023-01-08T02:39:58.611Z,1.04
2023-01-08T02:40:58.713Z,1.04
2023-01-08T02:41:58.818Z,1.04
2023-01-08T02:42:58.964Z,1.04
2023-01-08T02:43:59.116Z,1.04
2023-01-08T02:44:59.218Z,1.04
2023-01-08T02:45:59.446Z,1.04
2023-01-08T02:46:59.476Z,1.04
2023-01-08T02:47:59.579Z,1.04
2023-01-08T02:48:59.677Z,1.04
2023-01-08T02:49:59.832Z,1.04
2023-01-08T02:50:59.933Z,1.04
2023-01-08T02:52:00.035Z,1.04
2023-01-08T02:53:00.139Z,1.04
2023-01-08T02:54:00.284Z,1.04
2023-01-08T02:55:00.383Z,1.04
2023-01-08T02:56:00.492Z,1.04
2023-01-08T02:57:00.585Z,1.04
2023-01-08T02:58:00.772Z,1.04
2023-01-08T02:59:00.895Z,1.04
2023-01-08T03:00:01.000Z,1.04
2023-01-08T03:01:01.155Z,1.04
2023-01-08T03:02:01.287Z,1.04
2023-01-08T03:03:01.312Z,1.04
2023-01-08T03:04:01.422Z,1.04
2023-01-08T03:05:01.559Z,1.04
2023-01-08T03:06:01.708Z,1.04
2023-01-08T03:07:01.856Z,1.04
2023-01-08T03:08:01.960Z,1.04
2023-01-08T03:09:02.078Z,1.04
2023-01-08T03:10:02.158Z,1.04
2023-01-08T03:11:02.260Z,1.04
2023-01-08T03:12:02.362Z,1.04
2023-01-08T03:13:02.459Z,1.04
2023-01-08T03:14:02.570Z,1.04
2023-01-08T03:15:02.720Z,1.04
2023-01-08T03:16:02.827Z,1.04
2023-01-08T03:17:02.936Z,1.04
2023-01-08T03:18:03.016Z,1.04
2023-01-08T03:19:03.122Z,1.04
2023-01-08T03:20:03.224Z,1.04
2023-01-08T03:21:03.353Z,1.04
2023-01-08T03:22:03.484Z,1.04
2023-01-08T03:23:03.579Z,1.04
2023-01-08T03:24:03.688Z,1.04
2023-01-08T03:25:03.835Z,1.04
2023-01-08T03:26:03.980Z,1.04
2023-01-08T03:27:04.084Z,1.04
2023-01-08T03:28:04.256Z,1.04
2023-01-08T03:29:04.391Z,1.04
2023-01-08T03:30:04.551Z,1.04
2023-01-08T03:31:04.694Z,1.04
2023-01-08T03:32:04.751Z,1.04
2023-01-08T03:33:04.847Z,1.04
2023-01-08T03:34:04.948Z,1.04
2023-01-08T03:35:05.131Z,1.04
2023-01-08T03:36:05.214Z,1.04
2023-01-08T03:37:05.347Z,1.04
2023-01-08T03:38:05.498Z,1.04
2023-01-08T03:39:05.616Z,1.04
2023-01-08T03:40:05.707Z,1.04
2023-01-08T03:41:05.809Z,1.04
2023-01-08T03:42:05.983Z,1.04
2023-01-08T03:43:06.059Z,1.04
2023-01-08T03:44:06.160Z,1.04
2023-01-08T03:45:06.257Z,1.04
2023-01-08T03:46:06.469Z,1.04
2023-01-08T03:47:06.459Z,1.04
2023-01-08T03:48:06.564Z,1.04
2023-01-08T03:49:06.722Z,1.04
2023-01-08T03:50:06.867Z,1.04
2023-01-08T03:51:07.021Z,1.04
2023-01-08T03:52:07.125Z,1.04
2023-01-08T03:53:07.229Z,1.04
2023-01-08T03:54:07.328Z,1.04
2023-01-08T03:55:07.433Z,1.04
2023-01-08T03:56:07.553Z,1.04
2023-01-08T03:57:07.682Z,1.04
2023-01-08T03:58:07.780Z,1.04
2023-01-08T03:59:07.930Z,1.04
2023-01-08T04:00:08.103Z,1.04
2023-01-08T04:01:08.234Z,1.04
2023-01-08T04:02:08.391Z,1.04
2023-01-08T04:03:08.387Z,1.04
2023-01-08T04:04:08.572Z,1.04
2023-01-08T04:05:08.689Z,1.04
2023-01-08T04:06:08.799Z,1.04
2023-01-08T04:07:08.895Z,1.04
2023-01-08T04:08:09.045Z,1.04
2023-01-08T04:09:09.148Z,1.04
2023-01-08T04:10:09.255Z,1.04
2023-01-08T04:11:09.401Z,1.04
2023-01-08T04:12:09.513Z,1.04
2023-01-08T04:13:09.607Z,1.04
2023-01-08T04:14:09.754Z,1.04
2023-01-08T04:15:09.912Z,1.04
2023-01-08T04:16:10.064Z,1.04
2023-01-08T04:17:10.117Z,1.04
2023-01-08T04:18:10.211Z,1.04
2023-01-08T04:19:10.314Z,1.04
2023-01-08T04:20:10.412Z,1.04
2023-01-08T04:21:10.513Z,1.04
2023-01-08T04:22:10.626Z,1.04
2023-01-08T04:23:10.717Z,1.04
2023-01-08T04:24:10.820Z,1.04
2023-01-08T04:25:10.959Z,1.04
2023-01-08T04:26:11.032Z,1.04
2023-01-08T04:27:11.174Z,1.04
2023-01-08T04:28:11.281Z,1.04
2023-01-08T04:29:11.378Z,1.04
2023-01-08T04:30:11.486Z,1.04
2023-01-08T04:31:11.644Z,1.04
2023-01-08T04:32:11.683Z,1.04
2023-01-08T04:33:11.832Z,1.04
2023-01-08T04:34:11.991Z,1.04
2023-01-08T04:35:12.140Z,1.04
2023-01-08T04:36:12.233Z,1.04
2023-01-08T04:37:12.394Z,1.04
2023-01-08T04:38:12.542Z,1.04
2023-01-08T04:39:12.653Z,1.04
2023-01-08T04:40:12.741Z,1.04
2023-01-08T04:41:12.848Z,1.04
2023-01-08T04:42:12.951Z,1.04
2023-01-08T04:43:13.098Z,1.04
2023-01-08T04:44:13.253Z,1.04
2023-01-08T04:45:13.411Z,1.04
2023-01-08T04:46:13.536Z,1.04
2023-01-08T04:47:13.623Z,1.04
2023-01-08T04:48:13.706Z,1.04
2023-01-08T04:49:13.804Z,1.04
2023-01-08T04:50:13.932Z,1.04
2023-01-08T04:51:14.058Z,1.04
2023-01-08T04:52:14.162Z,1.04
2023-01-08T04:53:14.323Z,1.04
2023-01-08T04:54:14.473Z,1.04
2023-01-08T04:55:14.623Z,1.04
2023-01-08T04:56:14.728Z,1.04
2023-01-08T04:57:14.821Z,1.04
2023-01-08T04:58:14.977Z,1.04
2023-01-08T04:59:15.084Z,1.04
2023-01-08T05:00:15.178Z,1.04
2023-01-08T05:01:15.378Z,1.04
2023-01-08T05:02:15.562Z,1.04
2023-01-08T05:03:15.568Z,1.04
2023-01-08T05:04:15.683Z,1.04
2023-01-08T05:05:15.814Z,1.04
2023-01-08T05:06:15.949Z,1.04
2023-01-08T05:07:16.083Z,1.04
2023-01-08T05:08:16.235Z,1.04
2023-01-08T05:09:16.393Z,1.04
2023-01-08T05:10:16.542Z,1.04
2023-01-08T05:11:16.638Z,1.04
2023-01-08T05:12:16.742Z,1.04
2023-01-08T05:13:16.892Z,1.04
2023-01-08T05:14:17.005Z,1.04
2023-01-08T05:15:17.100Z,1.04
2023-01-08T05:16:17.299Z,1.04
2023-01-08T05:17:17.413Z,1.04
2023-01-08T05:18:17.551Z,1.04
2023-01-08T05:19:17.659Z,1.04
2023-01-08T05:20:19.051Z,1.04
2023-01-08T05:21:17.861Z,1.04
2023-01-08T05:22:17.955Z,1.04
2023-01-08T05:23:18.061Z,1.04
2023-01-08T05:24:18.164Z,1.04
2023-01-08T05:25:18.278Z,1.04
2023-01-08T05:26:18.415Z,1.04
2023-01-08T05:27:18.511Z,1.04
2023-01-08T05:28:18.619Z,1.04
2023-01-08T05:29:18.767Z,1.04
2023-01-08T05:30:18.872Z,1.04
2023-01-08T05:31:19.176Z,1.04
2023-01-08T05:32:19.135Z,1.04
2023-01-08T05:33:19.230Z,1.04
2023-01-08T05:34:19.328Z,1.04
2023-01-08T05:35:19.426Z,1.04
2023-01-08T05:36:19.599Z,1.04
2023-01-08T05:37:19.683Z,1.04
2023-01-08T05:38:19.793Z,1.04
2023-01-08T05:39:19.939Z,1.04
2023-01-08T05:40:20.085Z,1.04
2023-01-08T05:41:20.232Z,1.04
2023-01-08T05:42:20.386Z,1.04
2023-01-08T05:43:20.548Z,1.04
2023-01-08T05:44:20.642Z,1.04
2023-01-08T05:45:20.813Z,1.04
2023-01-08T05:46:20.967Z,1.04
2023-01-08T05:47:21.097Z,1.04
2023-01-08T05:48:21.244Z,1.04
2023-01-08T05:49:21.395Z,1.04
2023-01-08T05:50:21.501Z,1.04
2023-01-08T05:51:21.671Z,1.04
2023-01-08T05:52:21.828Z,1.04
2023-01-08T05:53:21.915Z,1.04
2023-01-08T05:54:22.014Z,1.04
2023-01-08T05:55:22.115Z,1.04
2023-01-08T05:56:22.214Z,1.04
2023-01-08T05:57:22.325Z,1.04
2023-01-08T05:58:22.465Z,1.04
2023-01-08T05:59:22.613Z,1.04
2023-01-08T06:00:22.721Z,1.04
2023-01-08T06:01:22.908Z,1.04
2023-01-08T06:02:22.999Z,1.04
2023-01-08T06:03:23.073Z,1.04
2023-01-08T06:04:23.235Z,1.04
2023-01-08T06:05:23.270Z,1.04
2023-01-08T06:06:23.378Z,1.04
2023-01-08T06:07:23.524Z,1.04
2023-01-08T06:08:23.635Z,1.04
2023-01-08T06:09:23.736Z,1.04
2023-01-08T06:10:23.876Z,1.04
2023-01-08T06:11:23.983Z,1.04
2023-01-08T06:12:24.088Z,1.04
2023-01-08T06:13:24.232Z,1.04
2023-01-08T06:14:24.393Z,1.04
2023-01-08T06:15:24.588Z,1.04
2023-01-08T06:16:24.688Z,1.04
2023-01-08T06:17:24.846Z,1.04
2023-01-08T06:18:24.993Z,1.04
2023-01-08T06:19:25.096Z,1.04
2023-01-08T06:20:25.195Z,1.04
2023-01-08T06:21:25.362Z,1.04
2023-01-08T06:22:25.455Z,1.04
2023-01-08T06:23:25.598Z,1.04
2023-01-08T06:24:25.698Z,2
2023-01-08T06:25:25.803Z,2
2023-01-08T06:26:25.902Z,2
2023-01-08T06:27:26.064Z,2
2023-01-08T06:28:26.161Z,2
2023-01-08T06:29:26.257Z,2
2023-01-08T06:30:26.359Z,2
2023-01-08T06:31:26.480Z,2
2023-01-08T06:32:26.603Z,2
2023-01-08T06:33:26.660Z,3.04
2023-01-08T06:34:26.817Z,3.04
2023-01-08T06:35:26.922Z,3.04
2023-01-08T06:36:27.071Z,3.04
2023-01-08T06:37:27.227Z,4
2023-01-08T06:38:27.332Z,4
2023-01-08T06:39:27.447Z,5.04
2023-01-08T06:40:27.523Z,5.04
2023-01-08T06:41:27.639Z,6
2023-01-08T06:42:27.728Z,6
2023-01-08T06:43:27.830Z,7.04
2023-01-08T06:44:27.933Z,8
2023-01-08T06:45:28.030Z,9.04
2023-01-08T06:46:28.184Z,10
2023-01-08T06:47:28.236Z,12
2023-01-08T06:48:28.392Z,14
2023-01-08T06:49:28.489Z,16
2023-01-08T06:50:28.637Z,18
2023-01-08T06:51:28.738Z,19.04
2023-01-08T06:52:28.840Z,22
2023-01-08T06:53:28.997Z,26
2023-01-08T06:54:29.094Z,31.04
2023-01-08T06:55:29.247Z,38
2023-01-08T06:56:29.426Z,47.04
2023-01-08T06:57:29.503Z,54
2023-01-08T06:58:29.652Z,57.04
2023-01-08T06:59:29.755Z,51.04
2023-01-08T07:00:30.033Z,46
2023-01-08T07:01:30.158Z,47.04
2023-01-08T07:02:30.435Z,52
2023-01-08T07:03:30.400Z,57.04
2023-01-08T07:04:30.461Z,63.04
2023-01-08T07:05:30.577Z,68
2023-01-08T07:06:30.674Z,73.04
2023-01-08T07:07:30.765Z,77.04
2023-01-08T07:08:30.874Z,80
2023-01-08T07:09:30.971Z,82
2023-01-08T07:10:31.124Z,86
2023-01-08T07:11:31.271Z,91.04
2023-01-08T07:12:31.382Z,94
2023-01-08T07:13:31.525Z,107.04
2023-01-08T07:14:31.626Z,125.04
2023-01-08T07:15:31.732Z,150
2023-01-08T07:16:31.885Z,183.04
2023-01-08T07:17:32.047Z,193.12
2023-01-08T07:18:32.129Z,201.12
2023-01-08T07:19:32.289Z,230.08
2023-01-08T07:20:32.391Z,254.08
2023-01-08T07:21:32.486Z,268
2023-01-08T07:22:32.588Z,282.08
2023-01-08T07:23:32.697Z,298.08
2023-01-08T07:24:32.864Z,316
2023-01-08T07:25:32.942Z,322.08
2023-01-08T07:26:33.106Z,312
2023-01-08T07:27:33.261Z,301.12
2023-01-08T07:28:33.410Z,301.12
2023-01-08T07:29:33.498Z,312
2023-01-08T07:30:33.619Z,327.04
2023-01-08T07:31:33.800Z,343.04
2023-01-08T07:32:33.852Z,354.24
2023-01-08T07:33:33.988Z,365.12
2023-01-08T07:34:34.105Z,372.16
2023-01-08T07:35:34.204Z,377.28
2023-01-08T07:36:34.311Z,391.04
2023-01-08T07:37:34.473Z,432
2023-01-08T07:38:34.562Z,488
2023-01-08T07:39:34.715Z,539.2
2023-01-08T07:40:34.825Z,595.2
2023-01-08T07:41:34.915Z,629.12
2023-01-08T07:42:35.020Z,656
2023-01-08T07:43:35.177Z,673.28
2023-01-08T07:44:35.272Z,683.52
2023-01-08T07:45:35.423Z,688
2023-01-08T07:46:35.566Z,691.2
2023-01-08T07:47:35.675Z,697.6
2023-01-08T07:48:35.831Z,712.32
2023-01-08T07:49:35.977Z,729.6
2023-01-08T07:50:36.081Z,751.36
2023-01-08T07:51:36.229Z,775.04
2023-01-08T07:52:36.332Z,789.12
2023-01-08T07:53:36.436Z,796.16
2023-01-08T07:54:36.586Z,788.48
2023-01-08T07:55:36.685Z,775.04
2023-01-08T07:56:36.798Z,760.32
2023-01-08T07:57:36.942Z,752
2023-01-08T07:58:37.093Z,758.4
2023-01-08T07:59:37.141Z,776.32
2023-01-08T08:00:37.298Z,808.32
2023-01-08T08:01:37.590Z,837.12
2023-01-08T08:02:37.690Z,861.44
2023-01-08T08:03:37.757Z,889.6
2023-01-08T08:04:37.801Z,914.56
2023-01-08T08:05:37.904Z,946.56
2023-01-08T08:06:38.003Z,989.44
2023-01-08T08:07:38.164Z,1021.44
2023-01-08T08:08:38.677Z,1053.44
2023-01-08T08:09:38.410Z,1072
2023-01-08T08:10:38.546Z,1087.36
2023-01-08T08:11:38.694Z,1103.36
2023-01-08T08:12:38.812Z,1120
2023-01-08T08:13:38.973Z,1150.08
2023-01-08T08:14:39.095Z,1216
2023-01-08T08:15:39.277Z,1280
2023-01-08T08:16:39.423Z,1416.96
2023-01-08T08:17:39.555Z,1532.16
2023-01-08T08:18:39.721Z,1611.52
2023-01-08T08:19:39.875Z,1669.12
2023-01-08T08:20:39.975Z,1683.2
2023-01-08T08:21:40.125Z,1684.48
2023-01-08T08:22:40.227Z,1683.2
2023-01-08T08:23:40.340Z,1693.44
2023-01-08T08:24:40.478Z,1710.08
2023-01-08T08:25:40.589Z,1726.72
2023-01-08T08:26:40.687Z,1715.2
2023-01-08T08:27:40.785Z,1683.2
2023-01-08T08:28:40.888Z,1644.8
2023-01-08T08:29:40.990Z,1615.36
2023-01-08T08:30:42.615Z,1596.16
2023-01-08T08:31:41.283Z,1585.92
2023-01-08T08:32:41.293Z,1589.76
2023-01-08T08:33:41.389Z,1600
2023-01-08T08:34:41.497Z,1625.6
2023-01-08T08:35:41.651Z,1651.2
2023-01-08T08:36:41.762Z,1696
2023-01-08T08:37:41.911Z,1735.68
2023-01-08T08:38:42.053Z,1774.08
2023-01-08T08:39:42.209Z,1816.32
2023-01-08T08:40:42.312Z,1845.76
2023-01-08T08:41:42.481Z,1864.96
2023-01-08T08:42:42.609Z,1872.64
2023-01-08T08:43:42.709Z,1871.36
2023-01-08T08:44:43.183Z,1867.52
2023-01-08T08:45:42.914Z,1871.36
2023-01-08T08:46:43.038Z,1893.12
2023-01-08T08:47:43.169Z,1937.92
2023-01-08T08:48:43.273Z,2016
2023-01-08T08:49:43.419Z,2099.2
2023-01-08T08:50:43.574Z,2197.76
2023-01-08T08:51:43.727Z,2245.12
2023-01-08T08:52:43.825Z,2269.44
2023-01-08T08:53:43.976Z,2282.24
2023-01-08T08:54:44.075Z,2291.2
2023-01-08T08:55:44.186Z,2318.08
2023-01-08T08:56:44.344Z,2376.96
2023-01-08T08:57:44.467Z,2426.88
2023-01-08T08:58:44.533Z,2467.84
2023-01-08T08:59:44.683Z,2497.28
2023-01-08T09:00:44.786Z,2538.24
2023-01-08T09:01:45.024Z,2595.84
2023-01-08T09:02:45.095Z,2698.24
2023-01-08T09:03:45.152Z,2800.64
2023-01-08T09:04:45.250Z,2918.4
2023-01-08T09:05:45.398Z,3097.6
2023-01-08T09:06:45.443Z,3284.48
2023-01-08T09:07:45.552Z,3461.12
2023-01-08T09:08:45.650Z,3584
2023-01-08T09:09:45.748Z,3614.72
2023-01-08T09:10:45.907Z,3594.24
2023-01-08T09:11:46.004Z,3525.12
2023-01-08T09:12:46.106Z,3456
2023-01-08T09:13:46.204Z,3392
2023-01-08T09:14:46.355Z,3366.4
2023-01-08T09:15:46.465Z,3374.08
2023-01-08T09:16:46.614Z,3432.96
2023-01-08T09:17:46.757Z,3466.24
2023-01-08T09:18:46.914Z,3499.52
2023-01-08T09:19:47.016Z,3591.68
2023-01-08T09:20:47.117Z,3727.36
2023-01-08T09:21:47.218Z,3847.68
2023-01-08T09:22:47.379Z,3927.04
2023-01-08T09:23:47.519Z,3921.92
2023-01-08T09:24:47.669Z,3891.2
2023-01-08T09:25:47.829Z,3855.36
2023-01-08T09:26:47.979Z,3850.24
2023-01-08T09:27:48.071Z,3837.44
2023-01-08T09:28:48.178Z,3729.92
2023-01-08T09:29:48.336Z,3594.24
2023-01-08T09:30:48.429Z,3481.6
2023-01-08T09:31:48.621Z,3404.8
2023-01-08T09:32:48.633Z,3338.24
2023-01-08T09:33:48.738Z,3192.32
2023-01-08T09:34:48.881Z,2972.16
2023-01-08T09:35:49.033Z,2764.8
2023-01-08T09:36:49.142Z,2597.12
2023-01-08T09:37:49.288Z,2644.48
2023-01-08T09:38:49.447Z,2798.08
2023-01-08T09:39:54.334Z,3079.68
2023-01-08T09:40:49.694Z,3325.44
2023-01-08T09:41:49.799Z,3540.48
2023-01-08T09:42:49.901Z,3663.36
2023-01-08T09:43:50.009Z,3760.64
2023-01-08T09:44:50.100Z,3868.16
2023-01-08T09:45:50.216Z,4016.64
2023-01-08T09:46:50.400Z,3960.32
2023-01-08T09:47:50.407Z,3883.52
2023-01-08T09:48:50.505Z,3927.04
2023-01-08T09:49:50.612Z,4070.4
2023-01-08T09:50:50.710Z,4167.68
2023-01-08T09:51:50.863Z,4157.44
2023-01-08T09:52:50.963Z,4116.48
2023-01-08T09:53:51.061Z,4221.44
2023-01-08T09:54:51.213Z,4400.64
2023-01-08T09:55:58.347Z,4459.52
2023-01-08T09:56:51.467Z,4354.56
2023-01-08T09:57:51.626Z,4170.24
2023-01-08T09:58:51.744Z,4183.04
2023-01-08T09:59:51.873Z,4236.8
2023-01-08T10:00:52.124Z,4311.04
2023-01-08T10:01:52.156Z,4413.44
2023-01-08T10:02:52.323Z,4377.6
2023-01-08T10:03:52.331Z,4334.08
2023-01-08T10:04:54.379Z,4280.32
2023-01-08T10:05:52.584Z,4231.68
2023-01-08T10:06:52.683Z,4188.16
2023-01-08T10:07:52.836Z,4172.8
2023-01-08T10:08:52.950Z,4198.4
2023-01-08T10:09:53.047Z,4300.8
2023-01-08T10:10:53.195Z,4418.56
2023-01-08T10:11:53.290Z,4584.96
2023-01-08T10:12:53.443Z,4792.32
2023-01-08T10:13:53.542Z,4961.28
2023-01-08T10:14:54.406Z,5143.04
2023-01-08T10:15:53.800Z,5422.08
2023-01-08T10:16:53.904Z,5693.44
2023-01-08T10:17:54.054Z,6056.96
2023-01-08T10:18:54.161Z,6307.84
2023-01-08T10:19:54.302Z,6543.36
2023-01-08T10:20:54.784Z,6773.76
2023-01-08T10:21:54.558Z,6871.04
2023-01-08T10:22:54.739Z,6978.56
2023-01-08T10:23:54.814Z,7050.24
2023-01-08T10:24:54.958Z,7111.68
2023-01-08T10:25:55.075Z,7121.92
2023-01-08T10:26:55.214Z,7121.92
2023-01-08T10:27:55.365Z,7121.92
2023-01-08T10:28:55.466Z,7127.04
2023-01-08T10:29:55.627Z,7142.4
2023-01-08T10:30:55.723Z,7132.16
2023-01-08T10:31:55.868Z,7070.72
2023-01-08T10:32:55.969Z,6978.56
2023-01-08T10:33:56.074Z,6840.32
2023-01-08T10:34:56.179Z,6702.08
2023-01-08T10:35:56.326Z,6522.88
2023-01-08T10:36:56.435Z,6384.64
2023-01-08T10:37:56.595Z,6225.92
2023-01-08T10:38:56.682Z,6103.04
2023-01-08T10:39:56.795Z,6010.88
2023-01-08T10:40:56.887Z,5964.8
2023-01-08T10:41:56.992Z,5928.96
2023-01-08T10:42:57.140Z,5826.56
2023-01-08T10:43:57.290Z,5719.04
2023-01-08T10:44:57.392Z,5575.68
2023-01-08T10:45:57.542Z,5488.64
2023-01-08T10:46:57.648Z,5416.96
2023-01-08T10:47:57.791Z,5314.56
2023-01-08T10:48:57.893Z,5120
2023-01-08T10:49:57.999Z,4879.36
2023-01-08T10:50:58.104Z,4595.2
2023-01-08T10:51:58.218Z,4323.84
2023-01-08T10:52:58.303Z,4190.72
2023-01-08T10:53:58.402Z,4113.92
2023-01-08T10:54:58.553Z,4088.32
2023-01-08T10:55:58.656Z,4055.04
2023-01-08T10:57:00.201Z,4019.2
2023-01-08T10:57:58.883Z,3996.16
2023-01-08T10:58:59.020Z,4008.96
2023-01-08T10:59:59.129Z,4090.88
2023-01-08T11:00:59.324Z,4198.4
2023-01-08T11:01:59.500Z,4316.16
2023-01-08T11:02:59.469Z,4341.76
2023-01-08T11:03:59.573Z,4300.8
2023-01-08T11:04:59.725Z,4116.48
2023-01-08T11:05:59.826Z,3947.52
2023-01-08T11:07:00.017Z,3837.44
2023-01-08T11:08:00.028Z,3750.4
2023-01-08T11:09:00.145Z,3732.48
2023-01-08T11:10:00.223Z,3763.2
2023-01-08T11:11:00.327Z,3865.6
2023-01-08T11:12:00.432Z,3970.56
2023-01-08T11:13:00.583Z,4088.32
2023-01-08T11:14:00.745Z,4160
2023-01-08T11:15:00.833Z,4193.28
2023-01-08T11:16:01.067Z,4142.08
2023-01-08T11:17:01.134Z,4049.92
2023-01-08T11:18:01.289Z,3924.48
2023-01-08T11:19:01.391Z,3742.72
2023-01-08T11:20:01.541Z,3609.6
2023-01-08T11:21:01.696Z,3491.84
2023-01-08T11:22:01.850Z,3448.32
2023-01-08T11:23:02.004Z,3456
2023-01-08T11:24:02.102Z,3476.48
2023-01-08T11:25:02.214Z,3514.88
2023-01-08T11:26:02.357Z,3558.4
2023-01-08T11:27:02.460Z,3573.76
2023-01-08T11:28:02.559Z,3578.88
2023-01-08T11:29:02.670Z,3589.12
2023-01-08T11:30:02.840Z,3624.96
2023-01-08T11:31:02.912Z,3709.44
2023-01-08T11:32:03.061Z,3814.4
2023-01-08T11:33:03.168Z,3962.88
2023-01-08T11:34:03.315Z,4290.56
2023-01-08T11:35:03.431Z,4702.72
2023-01-08T11:36:03.568Z,5173.76
2023-01-08T11:37:03.727Z,5729.28
2023-01-08T11:38:03.824Z,6016
2023-01-08T11:39:03.974Z,6144
2023-01-08T11:40:04.082Z,6246.4
2023-01-08T11:41:04.179Z,6292.48
2023-01-08T11:42:04.334Z,6333.44
2023-01-08T11:43:04.440Z,6282.24
2023-01-08T11:44:04.579Z,6164.48
2023-01-08T11:45:04.682Z,5949.44
2023-01-08T11:46:04.925Z,5795.84
2023-01-08T11:47:04.937Z,5729.28
2023-01-08T11:48:05.036Z,5754.88
2023-01-08T11:49:05.194Z,5795.84
2023-01-08T11:50:05.336Z,5826.56
2023-01-08T11:51:05.436Z,5770.24
2023-01-08T11:52:05.591Z,5632
2023-01-08T11:53:05.698Z,5447.68
2023-01-08T11:54:05.791Z,5222.4
2023-01-08T11:55:05.902Z,5084.16
2023-01-08T11:56:06.059Z,4981.76
2023-01-08T11:57:06.196Z,4830.72
2023-01-08T11:58:06.351Z,4748.8
2023-01-08T11:59:06.501Z,4679.68
2023-01-08T12:00:06.603Z,4618.24
2023-01-08T12:01:06.753Z,4572.16
2023-01-08T12:02:06.960Z,4536.32
2023-01-08T12:03:07.107Z,4480
2023-01-08T12:04:07.220Z,4446.72
2023-01-08T12:05:07.384Z,4367.36
2023-01-08T12:06:07.468Z,4264.96
2023-01-08T12:07:07.614Z,4149.76
2023-01-08T12:08:07.718Z,4029.44
2023-01-08T12:09:07.823Z,3944.96
2023-01-08T12:10:07.918Z,3927.04
2023-01-08T12:11:08.071Z,4062.72
2023-01-08T12:12:08.174Z,4234.24
2023-01-08T12:13:08.324Z,4436.48
2023-01-08T12:14:08.479Z,4549.12
2023-01-08T12:15:08.579Z,4631.04
2023-01-08T12:16:08.766Z,4618.24
2023-01-08T12:17:08.788Z,4584.96
2023-01-08T12:18:08.935Z,4485.12
2023-01-08T12:19:09.035Z,4367.36
2023-01-08T12:20:09.190Z,4231.68
2023-01-08T12:21:09.286Z,4034.56
2023-01-08T12:22:09.390Z,3852.8
2023-01-08T12:23:09.538Z,3658.24
2023-01-08T12:24:11.900Z,3571.2
2023-01-08T12:25:09.795Z,3804.16
2023-01-08T12:26:09.892Z,4101.12
2023-01-08T12:27:10.044Z,4188.16
2023-01-08T12:28:10.145Z,4170.24
2023-01-08T12:29:10.245Z,4183.04
2023-01-08T12:30:10.395Z,4134.4
2023-01-08T12:31:10.550Z,4157.44
2023-01-08T12:32:10.724Z,4431.36
2023-01-08T12:33:10.808Z,4759.04
2023-01-08T12:34:10.907Z,5038.08
2023-01-08T12:35:11.006Z,4625.92
2023-01-08T12:36:11.113Z,3988.48
2023-01-08T12:37:11.208Z,3868.16
2023-01-08T12:38:11.315Z,4049.92
2023-01-08T12:39:11.415Z,4078.08
2023-01-08T12:40:11.516Z,3668.48
2023-01-08T12:41:11.617Z,3276.8
2023-01-08T12:42:11.766Z,3084.8
2023-01-08T12:43:11.920Z,2987.52
2023-01-08T12:44:12.065Z,2517.76
2023-01-08T12:45:12.120Z,2197.76
2023-01-08T12:46:12.229Z,2211.84
2023-01-08T12:47:12.372Z,2323.2
2023-01-08T12:48:12.479Z,2227.2
2023-01-08T12:49:12.578Z,2186.24
2023-01-08T12:50:12.684Z,2158.08
2023-01-08T12:51:12.782Z,2147.84
2023-01-08T12:52:12.880Z,2154.24
2023-01-08T12:53:13.029Z,2220.8
2023-01-08T12:54:13.138Z,2350.08